Time;durP1;ratioP1;P1;durP2;ratioP2;P2;SDS_P1;SDS_P2;PMS_P1;PMS_P2;Temp;Humidity;BMP_temperature;BMP_pressure;BME280_temperature;BME280_humidity;BME280_pressure;Samples;Min_cycle;Max_cycle;Signal;HPM_P1;HPM_P2
2023/09/05 00:01:59;;;;;;;4.05;2.30;;;18.00;99.90;;;;;;5053283;28;20036;-65
2023/09/05 00:04:25;;;;;;;2.38;2.03;;;18.00;99.90;;;;;;5052830;28;20036;-65
2023/09/05 00:06:51;;;;;;;2.30;2.10;;;18.00;99.90;;;;;;5052102;28;20033;-65
2023/09/05 00:09:18;;;;;;;3.10;2.00;;;18.00;99.90;;;;;;5058951;28;20028;-65
2023/09/05 00:11:45;;;;;;;2.88;1.98;;;18.00;99.90;;;;;;5056529;28;20044;-65
2023/09/05 00:14:11;;;;;;;2.72;1.77;;;18.00;99.90;;;;;;5042199;28;20029;-65
2023/09/05 00:16:37;;;;;;;2.05;1.90;;;18.00;99.90;;;;;;5056751;28;20037;-65
2023/09/05 00:19:04;;;;;;;1.80;1.70;;;18.00;99.90;;;;;;5057543;28;20028;-65
2023/09/05 00:21:30;;;;;;;3.35;1.83;;;18.00;99.90;;;;;;5052550;28;20076;-65
2023/09/05 00:24:33;;;;;;;3.28;1.83;;;18.00;99.90;;;;;;5056742;28;20060;-65
2023/09/05 00:27:00;;;;;;;3.45;1.90;;;18.00;99.90;;;;;;5055853;28;20029;-65
2023/09/05 00:29:26;;;;;;;1.92;1.83;;;18.00;99.90;;;;;;5057250;28;20044;-65
2023/09/05 00:31:58;;;;;;;2.10;1.90;;;17.90;99.90;;;;;;5055984;28;20582;-65
2023/09/05 00:34:26;;;;;;;2.35;1.92;;;17.90;99.90;;;;;;5041048;28;20073;-65
2023/09/05 00:36:52;;;;;;;1.95;1.75;;;17.90;99.90;;;;;;5055553;28;20036;-65
2023/09/05 00:39:19;;;;;;;2.47;1.88;;;17.90;99.90;;;;;;5041502;28;20028;-65
2023/09/05 00:41:45;;;;;;;3.30;2.28;;;17.90;99.90;;;;;;5055057;28;20033;-65
2023/09/05 00:44:13;;;;;;;2.85;2.58;;;17.90;99.90;;;;;;5054370;28;20468;-65
2023/09/05 00:46:44;;;;;;;4.50;2.13;;;17.80;99.90;;;;;;5055143;28;20462;-65
2023/09/05 00:49:13;;;;;;;2.05;1.90;;;17.80;99.90;;;;;;5058788;28;20025;-65
2023/09/05 00:51:42;;;;;;;2.60;2.05;;;17.80;99.90;;;;;;5043009;28;20021;-65
2023/09/05 00:54:10;;;;;;;2.45;2.22;;;17.70;99.90;;;;;;5042982;28;20074;-65
2023/09/05 00:56:37;;;;;;;2.00;1.80;;;17.70;99.90;;;;;;5042964;28;20028;-65
2023/09/05 00:59:05;;;;;;;2.70;2.30;;;17.70;99.90;;;;;;5039011;28;20078;-65
2023/09/05 01:01:31;;;;;;;2.80;2.15;;;17.70;99.90;;;;;;5043137;28;20048;-65
2023/09/05 01:03:57;;;;;;;2.67;2.30;;;17.70;99.90;;;;;;5055384;28;20080;-65
2023/09/05 01:07:08;;;;;;;2.50;2.30;;;17.70;99.90;;;;;;5043859;28;20067;-65
2023/09/05 01:09:38;;;;;;;2.70;2.05;;;17.70;99.90;;;;;;4946008;29;20202;-65
2023/09/05 01:12:05;;;;;;;2.45;2.25;;;17.70;99.90;;;;;;4935088;28;20567;-65
2023/09/05 01:14:31;;;;;;;2.63;2.40;;;17.60;99.90;;;;;;4990448;28;20439;-65
2023/09/05 01:17:01;;;;;;;3.03;2.38;;;17.60;99.90;;;;;;5054963;28;20040;-65
2023/09/05 01:19:29;;;;;;;3.40;2.53;;;17.60;99.90;;;;;;5056436;28;20025;-65
2023/09/05 01:22:13;;;;;;;3.90;2.60;;;17.50;99.90;;;;;;5054557;28;20551;-65
2023/09/05 01:24:40;;;;;;;2.50;2.30;;;17.60;99.90;;;;;;5054770;28;20036;-65
2023/09/05 01:27:07;;;;;;;2.58;2.38;;;17.50;99.90;;;;;;5055722;28;20039;-65
2023/09/05 01:29:39;;;;;;;3.15;1.92;;;17.50;99.90;;;;;;5055932;28;20589;-65
2023/09/05 01:32:10;;;;;;;2.17;1.98;;;17.50;99.90;;;;;;5051938;28;20488;-65
2023/09/05 01:34:38;;;;;;;3.97;2.17;;;17.50;99.90;;;;;;5055041;28;20452;-65
2023/09/05 01:37:05;;;;;;;2.20;2.00;;;17.40;99.90;;;;;;5037656;28;20029;-65
2023/09/05 01:39:31;;;;;;;2.75;2.20;;;17.50;99.90;;;;;;5040303;28;20039;-65
2023/09/05 01:41:58;;;;;;;1.90;1.80;;;17.50;99.90;;;;;;5039857;28;20037;-65
2023/09/05 01:44:25;;;;;;;3.80;2.38;;;17.50;99.90;;;;;;5040099;28;20170;-65
2023/09/05 01:46:51;;;;;;;2.72;2.17;;;17.50;99.90;;;;;;5054485;28;20428;-65
2023/09/05 01:49:16;;;;;;;2.50;2.30;;;17.50;99.90;;;;;;5042136;28;20020;-64
2023/09/05 01:55:29;;;;;;;2.67;2.42;;;17.40;99.90;;;;;;5049643;28;20397;-65
2023/09/05 01:57:55;;;;;;;3.17;2.45;;;17.40;99.90;;;;;;5037738;28;20029;-65
2023/09/05 02:00:21;;;;;;;2.47;2.28;;;17.40;99.90;;;;;;5035534;28;20033;-65
2023/09/05 02:02:48;;;;;;;2.40;2.20;;;17.40;99.90;;;;;;5053312;28;20028;-65
2023/09/05 02:05:15;;;;;;;2.90;2.70;;;17.40;99.90;;;;;;5043331;28;20035;-65
2023/09/05 02:07:41;;;;;;;3.17;2.35;;;17.30;99.90;;;;;;5053013;28;20033;-65
2023/09/05 02:10:07;;;;;;;2.50;2.30;;;17.30;99.90;;;;;;5044603;28;20035;-64
2023/09/05 02:12:35;;;;;;;4.28;2.70;;;17.30;99.90;;;;;;5050648;28;20084;-65
2023/09/05 02:15:03;;;;;;;2.80;2.38;;;17.30;99.90;;;;;;5055437;28;20039;-65
2023/09/05 02:17:33;;;;;;;3.67;2.30;;;17.30;99.90;;;;;;5037332;28;20500;-65
2023/09/05 02:19:58;;;;;;;3.67;2.45;;;17.30;99.90;;;;;;5043911;28;20056;-65
2023/09/05 02:22:24;;;;;;;3.20;2.50;;;17.20;99.90;;;;;;5054133;28;20746;-65
2023/09/05 02:24:50;;;;;;;2.95;2.45;;;17.30;99.90;;;;;;5038667;28;20457;-64
2023/09/05 02:27:16;;;;;;;2.85;2.25;;;17.30;99.90;;;;;;5039189;28;20093;-65
2023/09/05 02:29:42;;;;;;;3.03;2.72;;;17.30;99.90;;;;;;5052902;28;20039;-65
2023/09/05 02:32:08;;;;;;;4.28;2.50;;;17.30;99.90;;;;;;5040385;28;20039;-64
2023/09/05 02:34:34;;;;;;;2.80;2.55;;;17.30;99.90;;;;;;5037979;28;20412;-65
2023/09/05 02:37:00;;;;;;;3.60;2.30;;;17.30;99.90;;;;;;5041025;28;20047;-64
2023/09/05 02:39:27;;;;;;;2.75;2.40;;;17.20;99.90;;;;;;5052520;28;20032;-64
2023/09/05 02:41:53;;;;;;;2.65;1.92;;;17.20;99.90;;;;;;5055270;28;20060;-64
2023/09/05 02:44:19;;;;;;;5.15;2.53;;;17.20;99.90;;;;;;5053461;28;20043;-64
2023/09/05 02:46:45;;;;;;;2.78;2.30;;;17.20;99.90;;;;;;5053924;28;20044;-65
2023/09/05 02:49:10;;;;;;;2.97;2.67;;;17.20;99.90;;;;;;5054127;28;20033;-64
2023/09/05 02:51:36;;;;;;;2.65;2.40;;;17.20;99.90;;;;;;5039386;28;20409;-64
2023/09/05 02:54:02;;;;;;;3.38;2.30;;;17.20;99.90;;;;;;5037547;28;20058;-65
2023/09/05 02:56:28;;;;;;;2.80;2.22;;;17.20;99.90;;;;;;5053977;28;20923;-65
2023/09/05 02:58:54;;;;;;;3.50;2.55;;;17.20;99.90;;;;;;5016681;28;20037;-65
2023/09/05 03:01:20;;;;;;;6.00;2.70;;;17.20;99.90;;;;;;5041542;28;20036;-65
2023/09/05 03:03:46;;;;;;;3.63;2.40;;;17.20;99.90;;;;;;5035446;28;20032;-65
2023/09/05 03:06:13;;;;;;;5.35;2.60;;;17.20;99.90;;;;;;5055684;28;20236;-64
2023/09/05 03:08:42;;;;;;;3.88;2.60;;;17.20;99.90;;;;;;5036364;28;20033;-64
2023/09/05 03:11:09;;;;;;;2.45;2.20;;;17.20;99.90;;;;;;5043184;28;20067;-65
2023/09/05 03:13:35;;;;;;;2.92;2.47;;;17.20;99.90;;;;;;5035932;28;20021;-64
2023/09/05 03:16:01;;;;;;;3.75;2.50;;;17.20;99.90;;;;;;5043142;28;20528;-64
2023/09/05 03:18:27;;;;;;;3.40;2.35;;;17.20;99.90;;;;;;5018386;28;20549;-65
2023/09/05 03:20:53;;;;;;;2.42;2.22;;;17.10;99.90;;;;;;5041468;28;20051;-64
2023/09/05 03:23:19;;;;;;;3.75;2.70;;;17.10;99.90;;;;;;5037243;28;20098;-65
2023/09/05 03:25:45;;;;;;;3.63;2.53;;;17.10;99.90;;;;;;5040756;28;20079;-65
2023/09/05 03:28:13;;;;;;;3.22;2.40;;;17.10;99.90;;;;;;5038609;28;20491;-64
2023/09/05 03:30:41;;;;;;;2.90;2.58;;;17.10;99.90;;;;;;5040595;28;20095;-65
2023/09/05 03:33:07;;;;;;;2.85;2.55;;;17.10;99.90;;;;;;5039641;28;20183;-65
2023/09/05 03:35:34;;;;;;;3.03;2.53;;;17.10;99.90;;;;;;5040466;28;20769;-65
2023/09/05 03:38:00;;;;;;;2.60;2.30;;;17.10;99.90;;;;;;5056025;28;20071;-65
2023/09/05 03:40:26;;;;;;;2.42;2.22;;;17.10;99.90;;;;;;5043575;28;20041;-65
2023/09/05 03:42:52;;;;;;;4.78;2.28;;;17.10;99.90;;;;;;5059012;28;20431;-64
2023/09/05 03:45:19;;;;;;;3.42;2.60;;;17.10;99.90;;;;;;5056857;28;20037;-65
2023/09/05 03:47:45;;;;;;;3.72;2.25;;;17.10;99.90;;;;;;5058030;28;20040;-65
2023/09/05 03:50:13;;;;;;;4.00;2.63;;;17.10;99.90;;;;;;5045630;28;20032;-65
2023/09/05 03:52:39;;;;;;;2.58;2.30;;;17.00;99.90;;;;;;5056098;28;20029;-65
2023/09/05 03:55:06;;;;;;;3.03;2.60;;;17.00;99.90;;;;;;5040788;28;20094;-64
2023/09/05 03:57:32;;;;;;;2.58;2.38;;;17.00;99.90;;;;;;5040010;28;20098;-65
2023/09/05 03:59:58;;;;;;;2.72;2.50;;;17.00;99.90;;;;;;5056956;28;20032;-65
2023/09/05 04:02:24;;;;;;;3.85;2.20;;;17.00;99.90;;;;;;5057799;28;20033;-64
2023/09/05 04:04:54;;;;;;;2.22;1.92;;;17.00;99.90;;;;;;5041976;28;20048;-65
2023/09/05 04:07:22;;;;;;;2.92;2.28;;;17.00;99.90;;;;;;5058390;28;20056;-64
2023/09/05 04:09:48;;;;;;;3.53;2.50;;;17.00;99.90;;;;;;5041899;28;20116;-65
2023/09/05 04:12:15;;;;;;;4.07;2.60;;;17.00;99.90;;;;;;5053477;28;20115;-65
2023/09/05 04:14:41;;;;;;;3.15;2.60;;;16.90;99.90;;;;;;5041590;28;20044;-65
2023/09/05 04:17:06;;;;;;;4.47;2.78;;;16.90;99.90;;;;;;5045606;28;20032;-65
2023/09/05 04:19:32;;;;;;;3.40;2.53;;;17.00;99.90;;;;;;5055154;28;20035;-65
2023/09/05 04:21:58;;;;;;;4.22;2.65;;;16.90;99.90;;;;;;5045041;28;20162;-65
2023/09/05 04:24:24;;;;;;;4.57;2.65;;;16.90;99.90;;;;;;5055093;28;20483;-65
2023/09/05 04:26:53;;;;;;;3.33;2.65;;;16.90;99.90;;;;;;5055575;28;20029;-65
2023/09/05 04:29:19;;;;;;;3.20;2.53;;;16.80;99.90;;;;;;5055963;28;20024;-64
2023/09/05 04:31:45;;;;;;;3.83;2.70;;;16.80;99.90;;;;;;5043246;28;20144;-64
2023/09/05 04:34:10;;;;;;;3.97;3.13;;;16.80;99.90;;;;;;5057719;28;20029;-64
2023/09/05 04:36:36;;;;;;;2.72;2.53;;;16.80;99.90;;;;;;5042889;28;20840;-64
2023/09/05 04:39:05;;;;;;;3.25;2.40;;;16.80;99.90;;;;;;5058612;28;20502;-65
2023/09/05 04:41:32;;;;;;;3.15;2.28;;;16.80;99.90;;;;;;5042883;28;20029;-64
2023/09/05 04:43:58;;;;;;;2.60;2.40;;;16.80;99.90;;;;;;5058568;28;20129;-64
2023/09/05 04:46:24;;;;;;;3.05;2.70;;;16.80;99.90;;;;;;5050532;28;20758;-65
2023/09/05 04:48:49;;;;;;;2.92;2.65;;;16.80;99.90;;;;;;5058281;28;20024;-64
2023/09/05 04:51:15;;;;;;;4.18;2.75;;;16.80;99.90;;;;;;5056309;28;20012;-64
2023/09/05 04:53:41;;;;;;;3.13;2.83;;;16.80;99.90;;;;;;5055478;28;20111;-64
2023/09/05 04:56:07;;;;;;;3.42;2.60;;;16.80;99.90;;;;;;5056345;28;20482;-64
2023/09/05 04:58:33;;;;;;;3.72;3.08;;;16.80;99.90;;;;;;5055757;28;20548;-64
2023/09/05 05:01:03;;;;;;;3.42;3.00;;;16.80;99.90;;;;;;5056274;28;20033;-65
2023/09/05 05:03:29;;;;;;;5.85;3.00;;;16.80;99.90;;;;;;5056124;28;20028;-64
2023/09/05 05:05:55;;;;;;;4.38;3.10;;;16.80;99.90;;;;;;5056062;28;20021;-65
2023/09/05 05:08:21;;;;;;;4.63;3.10;;;16.80;99.90;;;;;;5041738;28;20038;-65
2023/09/05 05:10:47;;;;;;;3.47;3.17;;;16.80;99.90;;;;;;5055031;28;20079;-65
2023/09/05 05:13:12;;;;;;;3.00;2.60;;;16.80;99.90;;;;;;5052684;28;20028;-64
2023/09/05 05:15:38;;;;;;;3.95;3.22;;;16.80;99.90;;;;;;5055020;28;20025;-64
2023/09/05 05:18:04;;;;;;;3.58;2.75;;;16.80;99.90;;;;;;5058178;28;20032;-64
2023/09/05 05:20:31;;;;;;;3.97;2.88;;;16.80;99.90;;;;;;5054614;28;20119;-64
2023/09/05 05:22:56;;;;;;;4.07;2.72;;;16.90;99.90;;;;;;5056536;28;20052;-65
2023/09/05 05:25:22;;;;;;;4.40;3.05;;;16.80;99.90;;;;;;5055446;28;20500;-64
2023/09/05 05:27:48;;;;;;;4.72;2.83;;;16.90;99.90;;;;;;5055354;28;20494;-64
2023/09/05 05:30:14;;;;;;;3.03;2.72;;;16.90;99.90;;;;;;5055461;28;20111;-64
2023/09/05 05:32:40;;;;;;;3.22;2.92;;;16.90;99.90;;;;;;5055099;28;20504;-65
2023/09/05 05:35:06;;;;;;;3.20;2.75;;;16.90;99.90;;;;;;5055012;28;20082;-65
2023/09/05 05:37:32;;;;;;;4.95;2.72;;;17.00;99.90;;;;;;5055805;28;20800;-65
2023/09/05 05:39:58;;;;;;;4.68;2.72;;;17.00;99.90;;;;;;5054251;28;20033;-65
2023/09/05 05:42:23;;;;;;;3.30;3.00;;;17.00;99.90;;;;;;5057050;28;20132;-64
2023/09/05 05:44:49;;;;;;;3.75;2.72;;;17.10;99.90;;;;;;5047408;28;20666;-65
2023/09/05 05:47:15;;;;;;;3.00;2.58;;;17.10;99.90;;;;;;5057488;28;20365;-65
2023/09/05 05:49:40;;;;;;;2.95;2.38;;;17.20;99.90;;;;;;5055387;28;20032;-65
2023/09/05 05:52:08;;;;;;;4.15;2.75;;;17.20;99.90;;;;;;5055787;28;20025;-64
2023/09/05 05:54:34;;;;;;;4.13;2.92;;;17.30;99.90;;;;;;5054478;28;20032;-65
2023/09/05 05:57:02;;;;;;;3.83;2.83;;;17.30;99.90;;;;;;5055458;28;20090;-64
2023/09/05 05:59:28;;;;;;;3.53;2.30;;;17.50;99.90;;;;;;5055344;28;20025;-64
2023/09/05 06:01:55;;;;;;;6.05;2.90;;;17.50;99.90;;;;;;5055153;28;20181;-64
2023/09/05 06:04:21;;;;;;;3.83;2.70;;;17.70;99.90;;;;;;5054824;28;20036;-64
2023/09/05 06:06:50;;;;;;;3.03;2.67;;;17.80;99.90;;;;;;5053870;28;20029;-65
2023/09/05 06:09:19;;;;;;;4.20;2.78;;;17.90;99.90;;;;;;5056863;28;20048;-65
2023/09/05 06:11:45;;;;;;;3.42;2.58;;;18.00;99.90;;;;;;5054054;28;20075;-65
2023/09/05 06:14:14;;;;;;;4.70;2.75;;;18.00;99.90;;;;;;5051799;28;20027;-65
2023/09/05 06:16:40;;;;;;;3.03;2.47;;;18.10;99.90;;;;;;5053506;28;20033;-64
2023/09/05 06:19:08;;;;;;;4.95;2.92;;;18.30;99.90;;;;;;5056901;28;20471;-65
2023/09/05 06:21:34;;;;;;;7.85;3.35;;;18.40;99.90;;;;;;5053639;28;20031;-65
2023/09/05 06:24:00;;;;;;;4.13;2.33;;;18.60;99.90;;;;;;5042474;28;20124;-65
2023/09/05 06:26:26;;;;;;;2.95;2.58;;;18.70;99.90;;;;;;5053693;28;20107;-64
2023/09/05 06:28:52;;;;;;;3.03;2.20;;;18.80;99.90;;;;;;5055270;28;20765;-65
2023/09/05 06:31:17;;;;;;;3.35;2.22;;;18.80;99.90;;;;;;5054769;28;20033;-65
2023/09/05 06:33:43;;;;;;;2.92;2.33;;;18.90;99.90;;;;;;5054103;28;20520;-67
2023/09/05 06:36:11;;;;;;;2.70;2.22;;;18.90;99.90;;;;;;5054232;28;20396;-65
2023/09/05 06:38:37;;;;;;;2.92;2.15;;;18.90;99.90;;;;;;5047717;28;20032;-65
2023/09/05 06:41:06;;;;;;;3.22;2.25;;;18.90;99.90;;;;;;5047814;28;20033;-65
2023/09/05 06:43:32;;;;;;;3.58;2.45;;;19.00;99.90;;;;;;5051758;28;20020;-65
2023/09/05 06:46:05;;;;;;;3.60;2.28;;;19.10;99.90;;;;;;5052300;28;20504;-64
2023/09/05 06:48:31;;;;;;;8.07;2.40;;;19.10;99.90;;;;;;5050131;28;20654;-64
2023/09/05 06:50:58;;;;;;;3.90;2.55;;;19.10;99.90;;;;;;5051460;28;20136;-65
2023/09/05 06:53:25;;;;;;;3.00;2.20;;;19.20;99.90;;;;;;5051492;28;20028;-65
2023/09/05 06:55:51;;;;;;;4.57;2.17;;;19.30;99.90;;;;;;5052784;28;20769;-65
2023/09/05 06:58:18;;;;;;;3.80;2.30;;;19.40;99.90;;;;;;5053709;28;20051;-65
2023/09/05 07:00:44;;;;;;;2.97;2.33;;;19.40;99.90;;;;;;5047797;28;20044;-65
2023/09/05 07:03:12;;;;;;;3.70;2.33;;;19.50;99.90;;;;;;5050099;28;20040;-65
2023/09/05 07:05:41;;;;;;;2.47;2.10;;;19.60;99.90;;;;;;5049435;28;20341;-65
2023/09/05 07:08:06;;;;;;;3.72;2.55;;;19.60;99.90;;;;;;5045816;28;20079;-65
2023/09/05 07:10:32;;;;;;;3.10;2.20;;;19.70;99.90;;;;;;5051640;28;20052;-65
2023/09/05 07:12:58;;;;;;;2.58;2.28;;;19.80;99.90;;;;;;5046272;28;20040;-65
2023/09/05 07:15:24;;;;;;;2.92;2.40;;;20.00;99.90;;;;;;5045444;28;20047;-65
2023/09/05 07:17:51;;;;;;;4.35;2.13;;;20.20;99.90;;;;;;5041006;28;20033;-65
2023/09/05 07:20:16;;;;;;;4.72;2.03;;;20.40;99.90;;;;;;5053376;28;20024;-65
2023/09/05 07:22:43;;;;;;;4.25;2.38;;;20.60;99.90;;;;;;5051678;28;20032;-65
2023/09/05 07:25:09;;;;;;;4.38;2.50;;;20.80;99.90;;;;;;5055511;28;20040;-65
2023/09/05 07:27:34;;;;;;;3.42;2.22;;;20.80;99.70;;;;;;5052090;28;20036;-65
2023/09/05 07:30:00;;;;;;;5.53;2.50;;;20.90;99.20;;;;;;5055682;28;20559;-66
2023/09/05 07:32:26;;;;;;;4.18;2.38;;;20.90;98.70;;;;;;5052851;28;20177;-65
2023/09/05 07:34:52;;;;;;;4.30;2.40;;;20.90;98.80;;;;;;5051450;28;20031;-65
2023/09/05 07:37:18;;;;;;;2.70;1.88;;;21.00;99.00;;;;;;5053372;28;20036;-65
2023/09/05 07:39:46;;;;;;;3.08;2.42;;;21.00;98.60;;;;;;5052551;28;20033;-65
2023/09/05 07:42:12;;;;;;;8.32;2.42;;;21.00;98.40;;;;;;5053676;28;20102;-65
2023/09/05 07:44:37;;;;;;;3.35;2.05;;;21.00;98.20;;;;;;5052318;28;20037;-65
2023/09/05 07:47:03;;;;;;;4.72;2.40;;;21.00;98.10;;;;;;5053258;28;20135;-65
2023/09/05 07:49:31;;;;;;;4.10;2.17;;;21.00;97.80;;;;;;5053739;28;20159;-65
2023/09/05 07:51:57;;;;;;;2.05;1.90;;;21.00;98.30;;;;;;5049056;28;20029;-65
2023/09/05 07:54:25;;;;;;;3.38;2.05;;;21.10;98.40;;;;;;5054501;28;20035;-65
2023/09/05 07:56:51;;;;;;;5.03;2.08;;;21.20;98.30;;;;;;5051874;28;20524;-65
2023/09/05 07:59:17;;;;;;;2.45;2.03;;;21.20;98.40;;;;;;5055331;28;20033;-65
2023/09/05 08:01:43;;;;;;;2.58;1.83;;;21.20;97.70;;;;;;5052014;28;20029;-65
2023/09/05 08:04:08;;;;;;;5.32;2.20;;;21.30;97.90;;;;;;5055139;28;20043;-65
2023/09/05 08:06:35;;;;;;;3.65;2.60;;;21.30;97.60;;;;;;5035291;28;20036;-65
2023/09/05 08:09:01;;;;;;;2.70;2.10;;;21.40;97.10;;;;;;5053974;28;20120;-65
2023/09/05 08:11:27;;;;;;;4.72;2.17;;;21.50;97.60;;;;;;5052872;28;20043;-65
2023/09/05 08:13:52;;;;;;;4.53;2.03;;;21.60;97.90;;;;;;5052832;28;20020;-65
2023/09/05 08:16:19;;;;;;;2.65;1.67;;;21.70;97.90;;;;;;5053978;28;20077;-65
2023/09/05 08:18:45;;;;;;;4.50;2.08;;;21.80;97.00;;;;;;5051688;28;20493;-65
2023/09/05 08:21:10;;;;;;;2.00;1.80;;;21.90;96.60;;;;;;5054974;28;20067;-65
2023/09/05 08:23:36;;;;;;;3.13;2.08;;;22.00;96.60;;;;;;5051456;28;20059;-65
2023/09/05 08:26:02;;;;;;;4.22;2.22;;;22.10;96.50;;;;;;5055023;28;20177;-65
2023/09/05 08:28:35;;;;;;;2.90;2.00;;;22.20;95.80;;;;;;5053042;28;20077;-65
2023/09/05 08:31:02;;;;;;;1.85;1.67;;;22.30;95.80;;;;;;5057496;28;20760;-65
2023/09/05 08:33:29;;;;;;;2.95;1.80;;;22.30;95.50;;;;;;5054762;28;20039;-65
2023/09/05 08:35:54;;;;;;;4.80;1.88;;;22.30;96.00;;;;;;5057910;28;20679;-65
2023/09/05 08:38:21;;;;;;;2.88;1.92;;;22.30;95.60;;;;;;5052421;28;20093;-65
2023/09/05 08:40:47;;;;;;;4.85;1.80;;;22.40;95.50;;;;;;5056596;28;20049;-65
2023/09/05 08:43:13;;;;;;;2.70;1.70;;;22.60;95.50;;;;;;5056695;28;20031;-65
2023/09/05 08:45:43;;;;;;;4.15;2.10;;;22.60;95.80;;;;;;5055393;28;20065;-65
2023/09/05 08:48:08;;;;;;;2.10;1.67;;;22.80;95.50;;;;;;5056810;28;20028;-65
2023/09/05 08:50:36;;;;;;;2.70;1.90;;;22.90;94.80;;;;;;5055731;28;20044;-65
2023/09/05 08:53:11;;;;;;;3.28;1.52;;;23.00;94.30;;;;;;5052957;28;20405;-65
2023/09/05 08:55:40;;;;;;;4.43;2.10;;;23.00;94.30;;;;;;5056148;28;20392;-65
2023/09/05 08:58:15;;;;;;;5.10;2.30;;;23.00;94.00;;;;;;5056079;28;20690;-65
2023/09/05 09:00:43;;;;;;;2.40;1.67;;;23.10;93.60;;;;;;5055463;28;20029;-65
2023/09/05 09:03:08;;;;;;;2.30;1.80;;;23.20;93.40;;;;;;5056277;28;20047;-65
2023/09/05 09:05:38;;;;;;;5.22;2.03;;;23.30;92.90;;;;;;5056007;28;20048;-65
2023/09/05 09:08:04;;;;;;;2.22;1.90;;;23.40;92.90;;;;;;5053077;28;20033;-65
2023/09/05 09:10:30;;;;;;;2.22;1.88;;;23.50;93.30;;;;;;5056069;28;20434;-65
2023/09/05 09:13:19;;;;;;;2.33;2.00;;;23.60;92.80;;;;;;5054777;28;20102;-65
2023/09/05 09:15:46;;;;;;;2.05;1.80;;;23.70;92.20;;;;;;5055810;28;20025;-65
2023/09/05 09:18:13;;;;;;;4.38;1.80;;;23.80;92.50;;;;;;5056140;28;20151;-65
2023/09/05 09:20:47;;;;;;;2.17;1.80;;;23.90;92.40;;;;;;5041705;28;20070;-65
2023/09/05 09:23:23;;;;;;;3.95;2.00;;;23.90;92.50;;;;;;5055060;28;20094;-65
2023/09/05 09:25:49;;;;;;;2.22;1.80;;;24.10;92.60;;;;;;5055066;28;20048;-65
2023/09/05 09:28:34;;;;;;;3.58;1.90;;;24.10;92.40;;;;;;5055535;28;20028;-65
2023/09/05 09:31:05;;;;;;;5.82;1.60;;;24.30;92.10;;;;;;5053523;28;20146;-65
2023/09/05 09:33:33;;;;;;;4.35;1.65;;;24.40;92.20;;;;;;5050613;28;20532;-65
2023/09/05 09:36:03;;;;;;;3.78;1.65;;;24.60;91.20;;;;;;5056486;28;20021;-65
2023/09/05 09:38:29;;;;;;;2.70;1.70;;;24.70;90.80;;;;;;5054157;28;20039;-65
2023/09/05 09:40:55;;;;;;;2.40;1.70;;;24.70;90.60;;;;;;5052673;28;20037;-65
2023/09/05 09:43:21;;;;;;;2.60;1.95;;;24.80;90.90;;;;;;5056660;28;20060;-65
2023/09/05 09:45:47;;;;;;;3.17;1.30;;;24.80;91.00;;;;;;5052138;28;20041;-65
2023/09/05 09:48:15;;;;;;;2.28;1.38;;;24.90;90.10;;;;;;5054241;28;20031;-65
2023/09/05 09:50:45;;;;;;;1.98;1.50;;;25.00;88.40;;;;;;5054399;28;20052;-65
2023/09/05 09:53:18;;;;;;;3.38;1.38;;;25.00;88.10;;;;;;5039714;28;20072;-65
2023/09/05 09:55:45;;;;;;;1.77;1.30;;;25.10;86.90;;;;;;5054330;28;20048;-65
2023/09/05 09:58:18;;;;;;;2.58;1.50;;;24.90;86.90;;;;;;5054723;28;20483;-65
2023/09/05 10:00:47;;;;;;;4.20;1.30;;;24.80;87.90;;;;;;5054025;28;20095;-65
2023/09/05 10:03:13;;;;;;;2.03;1.52;;;24.80;85.20;;;;;;5054322;28;20028;-65
2023/09/05 10:05:41;;;;;;;3.38;1.30;;;24.90;87.40;;;;;;5054414;28;20025;-65
2023/09/05 10:08:10;;;;;;;1.77;1.20;;;25.10;87.70;;;;;;5049851;28;20035;-65
2023/09/05 10:10:41;;;;;;;2.92;1.60;;;25.30;85.60;;;;;;5054931;28;20040;-65
2023/09/05 10:13:08;;;;;;;1.55;1.15;;;25.30;84.70;;;;;;5049241;28;20025;-65
2023/09/05 10:15:37;;;;;;;3.03;1.30;;;25.40;84.70;;;;;;5055116;28;20025;-65
2023/09/05 10:18:05;;;;;;;2.45;1.20;;;25.30;83.00;;;;;;5053734;28;20500;-65
2023/09/05 10:20:33;;;;;;;2.03;1.30;;;25.40;84.30;;;;;;5055488;28;20166;-65
2023/09/05 10:22:59;;;;;;;3.45;1.30;;;25.40;83.50;;;;;;5053105;28;20043;-65
2023/09/05 10:25:27;;;;;;;5.05;1.30;;;25.50;83.90;;;;;;5056636;28;20032;-65
2023/09/05 10:27:53;;;;;;;3.40;1.33;;;25.60;83.00;;;;;;5052500;28;20025;-65
2023/09/05 10:30:19;;;;;;;3.03;1.30;;;25.80;82.70;;;;;;5056156;28;20626;-65
2023/09/05 10:32:47;;;;;;;1.80;1.10;;;25.70;81.90;;;;;;5054468;28;20501;-65
2023/09/05 10:35:17;;;;;;;2.30;1.58;;;25.80;82.30;;;;;;5054780;28;20035;-65
2023/09/05 10:37:51;;;;;;;1.92;1.15;;;25.90;81.80;;;;;;5036943;28;20202;-65
2023/09/05 10:40:18;;;;;;;1.25;1.10;;;25.90;81.90;;;;;;5054061;28;20510;-65
2023/09/05 10:42:54;;;;;;;1.45;1.30;;;26.00;81.40;;;;;;5052311;28;20505;-65
2023/09/05 10:45:23;;;;;;;1.55;1.13;;;26.00;81.40;;;;;;5056329;28;20029;-65
2023/09/05 10:47:56;;;;;;;1.27;1.10;;;26.10;80.60;;;;;;5054627;28;20106;-65
2023/09/05 10:50:23;;;;;;;1.30;1.20;;;26.10;80.10;;;;;;5052916;28;20059;-65
2023/09/05 10:53:11;;;;;;;3.47;1.10;;;26.20;82.20;;;;;;5054690;28;20029;-65
2023/09/05 10:55:44;;;;;;;3.33;1.05;;;26.30;80.40;;;;;;5050523;28;20031;-65
2023/09/05 10:58:43;;;;;;;2.08;1.52;;;26.30;79.00;;;;;;5051658;28;20152;-65
2023/09/05 11:01:29;;;;;;;2.28;1.17;;;26.30;79.40;;;;;;5054373;28;20028;-65
2023/09/05 11:04:10;;;;;;;2.47;1.35;;;26.40;80.00;;;;;;5052416;28;20036;-65
2023/09/05 11:06:36;;;;;;;2.38;1.00;;;26.50;80.20;;;;;;5051842;28;20089;-65
2023/09/05 11:09:06;;;;;;;2.72;1.10;;;26.50;78.70;;;;;;5053564;28;20040;-65
2023/09/05 11:11:37;;;;;;;1.73;1.10;;;26.60;79.60;;;;;;5054266;28;20029;-65
2023/09/05 11:14:09;;;;;;;2.90;1.20;;;26.70;78.20;;;;;;5052965;28;20560;-65
2023/09/05 11:16:49;;;;;;;2.72;1.20;;;26.70;77.60;;;;;;5053921;28;20067;-65
2023/09/05 11:19:38;;;;;;;1.73;1.20;;;26.80;80.00;;;;;;5051987;28;20036;-65
2023/09/05 11:22:25;;;;;;;2.35;1.20;;;26.90;77.50;;;;;;5053459;28;20048;-66
2023/09/05 11:24:59;;;;;;;2.35;1.17;;;26.90;78.70;;;;;;5051275;28;20048;-65
2023/09/05 11:27:26;;;;;;;1.48;1.13;;;26.90;77.60;;;;;;5051427;28;20159;-65
2023/09/05 11:29:55;;;;;;;1.63;1.02;;;26.90;77.20;;;;;;5052022;28;20067;-65
2023/09/05 11:32:31;;;;;;;1.73;0.98;;;26.70;76.80;;;;;;5055382;28;20024;-65
2023/09/05 11:34:58;;;;;;;2.22;0.93;;;26.70;76.60;;;;;;5051990;28;20508;-65
2023/09/05 11:37:24;;;;;;;1.35;1.00;;;26.80;76.80;;;;;;5054415;28;20032;-65
2023/09/05 11:39:51;;;;;;;1.10;1.00;;;26.80;75.90;;;;;;5044260;28;20036;-65
2023/09/05 11:42:22;;;;;;;3.85;1.30;;;26.80;75.60;;;;;;5055858;28;20101;-65
2023/09/05 11:44:48;;;;;;;2.95;1.20;;;26.70;76.50;;;;;;5051761;28;20565;-65
2023/09/05 11:47:15;;;;;;;2.17;1.17;;;26.80;77.10;;;;;;5056157;28;20094;-66
2023/09/05 11:49:41;;;;;;;3.63;1.27;;;26.90;77.00;;;;;;5035950;28;20036;-65
2023/09/05 11:52:08;;;;;;;0.80;0.80;;;27.10;75.20;;;;;;5055257;28;20017;-65
2023/09/05 11:54:34;;;;;;;2.35;0.80;;;27.20;74.90;;;;;;5051991;28;20108;-66
2023/09/05 11:57:02;;;;;;;0.70;0.70;;;27.10;75.20;;;;;;5053760;28;20128;-65
2023/09/05 11:59:28;;;;;;;1.63;1.10;;;27.20;74.60;;;;;;5052432;28;20025;-66
2023/09/05 12:01:55;;;;;;;1.63;1.00;;;27.30;75.60;;;;;;5053711;28;20033;-65
2023/09/05 12:04:22;;;;;;;2.40;1.08;;;27.40;76.50;;;;;;5057617;28;20631;-65
2023/09/05 12:06:52;;;;;;;1.13;1.00;;;27.50;74.40;;;;;;5056542;28;20035;-65
2023/09/05 12:09:18;;;;;;;2.03;1.15;;;27.50;73.60;;;;;;5057770;28;20028;-65
2023/09/05 12:11:44;;;;;;;1.20;0.95;;;27.40;73.90;;;;;;5055774;28;20481;-65
2023/09/05 12:14:10;;;;;;;0.93;0.80;;;27.50;73.50;;;;;;5058336;28;20031;-66
2023/09/05 12:16:36;;;;;;;6.60;1.40;;;27.50;72.80;;;;;;5055635;28;20464;-65
2023/09/05 12:19:02;;;;;;;1.52;1.20;;;27.40;73.10;;;;;;5058654;28;20385;-65
2023/09/05 12:21:42;;;;;;;1.17;0.95;;;27.40;75.00;;;;;;5055440;28;20078;-65
2023/09/05 12:24:18;;;;;;;1.02;0.75;;;27.40;72.50;;;;;;5058336;28;20085;-65
2023/09/05 12:26:44;;;;;;;2.10;1.00;;;27.50;74.20;;;;;;5055097;28;20028;-65
2023/09/05 12:29:10;;;;;;;1.10;0.90;;;27.70;74.60;;;;;;5053850;28;20036;-65
2023/09/05 12:31:37;;;;;;;1.60;1.20;;;27.70;73.00;;;;;;5055323;28;20481;-65
2023/09/05 12:34:03;;;;;;;1.13;1.00;;;27.80;72.00;;;;;;5058594;28;20020;-65
2023/09/05 12:36:29;;;;;;;1.67;1.23;;;27.70;71.90;;;;;;5055129;28;20388;-65
2023/09/05 12:38:55;;;;;;;3.28;1.00;;;27.70;71.70;;;;;;5057011;28;20098;-65
2023/09/05 12:41:21;;;;;;;1.35;1.20;;;27.70;72.40;;;;;;5055578;28;20126;-64
2023/09/05 12:43:46;;;;;;;1.60;1.00;;;27.60;71.70;;;;;;5055923;28;20052;-65
2023/09/05 12:46:12;;;;;;;0.85;0.82;;;27.60;72.30;;;;;;5052431;28;20028;-65
2023/09/05 12:48:38;;;;;;;1.02;0.90;;;27.70;72.40;;;;;;5040896;28;20505;-65
2023/09/05 12:51:04;;;;;;;2.45;1.33;;;27.70;73.60;;;;;;5056000;28;20024;-65
2023/09/05 12:53:30;;;;;;;1.70;0.95;;;27.80;72.80;;;;;;5056222;28;20751;-65
2023/09/05 12:55:57;;;;;;;3.45;1.10;;;27.90;70.90;;;;;;5055161;28;20054;-65